Time;durP1;ratioP1;P1;durP2;ratioP2;P2;SDS_P1;SDS_P2;PMS_P1;PMS_P2;Temp;Humidity;BMP_temperature;BMP_pressure;BME280_temperature;BME280_humidity;BME280_pressure;Samples;Min_cycle;Max_cycle;Signal;HPM_P1;HPM_P2
2022/03/29 00:01:39;;;;;;;18.60;11.38;;;8.20;99.90;;;8.18;100.00;97353.69;5005495;28;20046;-74
2022/03/29 00:04:06;;;;;;;16.50;11.10;;;8.30;99.90;;;8.04;100.00;97349.94;5007003;28;20125;-74
2022/03/29 00:06:33;;;;;;;19.33;10.60;;;8.20;99.90;;;8.01;100.00;97340.56;5007321;28;20577;-74
2022/03/29 00:09:00;;;;;;;17.30;11.65;;;8.20;99.90;;;7.88;100.00;97350.50;5006500;28;20134;-74
2022/03/29 00:11:27;;;;;;;19.20;12.32;;;8.10;99.90;;;7.79;100.00;97350.81;5001088;28;20092;-75
2022/03/29 00:13:54;;;;;;;18.02;12.38;;;8.10;99.90;;;7.79;100.00;97347.38;5004890;28;20160;-75
2022/03/29 00:16:21;;;;;;;19.33;12.32;;;8.00;99.90;;;7.75;100.00;97339.75;5002928;28;20050;-74
2022/03/29 00:18:51;;;;;;;22.90;12.43;;;8.10;99.90;;;7.62;100.00;97338.50;5023538;28;20065;-74
2022/03/29 00:21:18;;;;;;;20.98;13.27;;;8.00;99.90;;;7.56;100.00;97336.13;5001019;28;20060;-75
2022/03/29 00:23:45;;;;;;;18.98;11.57;;;8.00;99.90;;;7.49;100.00;97338.06;5006455;28;20092;-75
2022/03/29 00:26:13;;;;;;;20.42;12.10;;;7.90;99.90;;;7.61;100.00;97326.47;5022716;28;20077;-74
2022/03/29 00:28:40;;;;;;;16.70;11.50;;;7.90;99.90;;;7.61;100.00;97320.47;5008134;28;20078;-74
2022/03/29 00:31:08;;;;;;;19.85;12.07;;;7.90;99.90;;;7.77;100.00;97318.19;5009234;28;20117;-76
2022/03/29 00:33:36;;;;;;;23.95;11.90;;;7.90;99.90;;;7.72;100.00;97319.19;5002315;28;20069;-75
2022/03/29 00:36:04;;;;;;;19.67;12.13;;;8.00;99.90;;;7.82;100.00;97314.53;5004777;28;20561;-75
2022/03/29 00:38:31;;;;;;;18.88;12.18;;;8.00;99.90;;;7.69;100.00;97310.72;5004908;28;20065;-74
2022/03/29 00:40:59;;;;;;;16.65;11.45;;;8.00;99.90;;;7.74;100.00;97308.81;5006113;28;20050;-75
2022/03/29 00:43:26;;;;;;;20.02;12.68;;;8.00;99.90;;;7.69;100.00;97305.53;5004450;28;20137;-74
2022/03/29 00:45:53;;;;;;;21.02;12.40;;;8.00;99.90;;;7.73;100.00;97307.09;5003026;28;20064;-74
2022/03/29 00:48:21;;;;;;;18.80;12.50;;;8.00;99.90;;;7.73;100.00;97292.47;5008789;28;20045;-74
2022/03/29 00:50:48;;;;;;;21.40;13.38;;;8.00;99.90;;;7.58;100.00;97295.59;5006602;28;20141;-75
2022/03/29 00:53:18;;;;;;;21.30;12.38;;;7.90;99.90;;;7.62;100.00;97291.13;5006824;28;20563;-74
2022/03/29 00:55:48;;;;;;;18.75;11.50;;;7.90;99.90;;;7.71;100.00;97288.25;5021865;28;20054;-75
2022/03/29 00:58:16;;;;;;;17.15;11.77;;;7.90;99.90;;;7.60;100.00;97285.22;5005266;28;20133;-74
2022/03/29 01:00:44;;;;;;;18.17;12.23;;;8.00;99.90;;;7.64;100.00;97291.94;5002596;28;20449;-75
2022/03/29 01:03:11;;;;;;;20.80;12.57;;;7.90;99.90;;;7.59;100.00;97281.75;5005338;28;20050;-74
2022/03/29 01:05:38;;;;;;;18.35;11.82;;;8.00;99.90;;;7.47;100.00;97287.38;5006142;28;20073;-74
2022/03/29 01:08:06;;;;;;;20.27;11.73;;;7.90;99.90;;;7.48;100.00;97276.13;5003304;28;20128;-74
2022/03/29 01:10:34;;;;;;;19.48;12.30;;;7.80;99.90;;;7.58;100.00;97279.25;5008749;28;20128;-75
2022/03/29 01:13:01;;;;;;;17.92;11.63;;;7.80;99.90;;;7.48;100.00;97274.41;5010242;28;20108;-74
2022/03/29 01:15:32;;;;;;;22.95;12.93;;;7.80;99.90;;;7.12;100.00;97274.75;5006877;28;20196;-74
2022/03/29 01:18:01;;;;;;;18.63;12.68;;;7.70;99.90;;;7.29;100.00;97274.19;5024619;28;20322;-75
2022/03/29 01:20:31;;;;;;;22.15;12.77;;;7.60;99.90;;;7.26;100.00;97270.88;5010922;28;20128;-75
2022/03/29 01:23:01;;;;;;;23.77;13.73;;;7.70;99.90;;;6.91;100.00;97266.00;5003836;28;20149;-75
2022/03/29 01:25:38;;;;;;;23.70;14.13;;;7.70;99.90;;;7.00;100.00;97266.56;5004253;28;20132;-74
2022/03/29 01:28:06;;;;;;;23.88;13.73;;;7.50;99.90;;;7.05;100.00;97262.97;5008545;28;20039;-74
2022/03/29 01:30:34;;;;;;;28.10;13.02;;;7.50;99.90;;;7.26;100.00;97269.13;5004087;28;20129;-74
2022/03/29 01:33:05;;;;;;;26.25;13.20;;;7.60;99.90;;;7.05;100.00;97273.28;5002939;28;20650;-74
2022/03/29 01:35:32;;;;;;;23.40;14.35;;;7.50;99.90;;;6.89;100.00;97261.78;5004194;28;20088;-75
2022/03/29 01:37:59;;;;;;;27.20;14.95;;;7.40;99.90;;;7.04;100.00;97255.25;5008348;28;20046;-74
2022/03/29 01:40:27;;;;;;;21.92;12.95;;;7.40;99.90;;;7.11;100.00;97262.75;4994952;28;20078;-74
2022/03/29 01:43:00;;;;;;;23.27;13.23;;;7.50;99.90;;;6.99;100.00;97255.41;5000898;28;20049;-74
2022/03/29 01:45:30;;;;;;;28.02;15.52;;;7.40;99.90;;;7.04;100.00;97250.94;5006146;28;20167;-74
2022/03/29 01:47:57;;;;;;;30.17;15.52;;;7.50;99.90;;;7.00;100.00;97251.97;5023764;28;20125;-74
2022/03/29 01:50:25;;;;;;;29.88;16.40;;;7.40;99.90;;;6.82;100.00;97247.38;4997756;28;20536;-74
2022/03/29 01:52:52;;;;;;;36.28;18.40;;;7.30;99.90;;;7.07;100.00;97244.84;5003029;28;20073;-74
2022/03/29 01:55:21;;;;;;;36.47;17.50;;;7.40;99.90;;;7.24;100.00;97252.84;5004698;28;20124;-73
2022/03/29 01:57:50;;;;;;;32.67;16.02;;;7.50;99.90;;;7.19;100.00;97243.59;5000451;28;20056;-74
2022/03/29 02:00:38;;;;;;;32.38;17.65;;;7.60;99.90;;;7.18;100.00;97240.16;5008608;28;20054;-73
2022/03/29 02:03:07;;;;;;;35.63;19.33;;;7.60;99.90;;;7.11;100.00;97238.69;5012802;28;20081;-74
2022/03/29 02:05:35;;;;;;;33.47;18.48;;;7.50;99.90;;;7.01;100.00;97242.47;5011348;28;20060;-75
2022/03/29 02:08:03;;;;;;;28.23;16.50;;;7.50;99.90;;;6.95;100.00;97242.66;5011443;28;20132;-74
2022/03/29 02:10:31;;;;;;;26.33;14.55;;;7.60;99.90;;;7.16;100.00;97238.50;5006974;28;20616;-74
2022/03/29 02:12:58;;;;;;;23.15;13.98;;;7.50;99.90;;;7.13;100.00;97232.56;5023406;28;20046;-74
2022/03/29 02:15:26;;;;;;;27.58;14.20;;;7.50;99.90;;;7.32;100.00;97230.19;5007334;28;20050;-74
2022/03/29 02:17:54;;;;;;;25.58;14.30;;;7.50;99.90;;;7.22;100.00;97234.00;5003149;28;20153;-75
2022/03/29 02:20:23;;;;;;;25.60;14.07;;;7.50;99.90;;;7.16;100.00;97226.47;5003168;28;20050;-74
2022/03/29 02:22:51;;;;;;;24.40;14.13;;;7.50;99.90;;;7.19;100.00;97226.38;5005518;28;20455;-75
2022/03/29 02:25:18;;;;;;;29.27;15.63;;;7.50;99.90;;;7.22;100.00;97233.16;5001294;28;20181;-74
2022/03/29 02:27:46;;;;;;;29.27;16.48;;;7.50;99.90;;;7.25;100.00;97222.72;5023354;28;20085;-74
2022/03/29 02:30:16;;;;;;;29.13;15.95;;;7.60;99.90;;;7.42;100.00;97219.56;5004887;28;20050;-74
2022/03/29 02:32:44;;;;;;;29.35;14.52;;;7.60;99.90;;;7.33;100.00;97220.72;5022164;28;20038;-74
2022/03/29 02:35:12;;;;;;;25.98;14.07;;;7.60;99.90;;;7.53;100.00;97215.69;5006366;28;20054;-74
2022/03/29 02:37:39;;;;;;;27.55;13.52;;;7.60;99.90;;;7.24;100.00;97214.13;5005184;28;20743;-74
2022/03/29 02:40:09;;;;;;;26.00;14.85;;;7.60;99.90;;;7.33;100.00;97206.06;5002734;28;20473;-74
2022/03/29 02:42:49;;;;;;;27.60;14.68;;;7.60;99.90;;;6.97;100.00;97207.34;5003756;28;20041;-75
2022/03/29 02:45:19;;;;;;;31.80;15.30;;;7.50;99.90;;;7.02;100.00;97200.28;5003629;28;20496;-74
2022/03/29 02:47:55;;;;;;;25.10;14.60;;;7.50;99.90;;;6.99;100.00;97187.50;5000433;28;20081;-74
2022/03/29 02:50:24;;;;;;;26.33;14.80;;;7.50;99.90;;;6.94;100.00;97194.56;5000282;28;20359;-74
2022/03/29 02:52:57;;;;;;;23.75;15.20;;;7.50;99.90;;;6.60;100.00;97193.94;5002693;28;20046;-74
2022/03/29 02:55:28;;;;;;;23.50;14.23;;;7.50;99.90;;;6.86;100.00;97182.72;5002573;28;20096;-74
2022/03/29 02:57:56;;;;;;;32.60;14.43;;;7.40;99.90;;;6.95;100.00;97180.75;4998582;28;20054;-74
2022/03/29 03:00:24;;;;;;;22.27;13.57;;;7.50;99.90;;;7.12;100.00;97188.75;5007047;28;20518;-74
2022/03/29 03:02:54;;;;;;;23.98;14.40;;;7.40;99.90;;;7.02;100.00;97182.22;5008284;28;20172;-74
2022/03/29 03:05:24;;;;;;;28.05;13.90;;;7.50;99.90;;;7.19;100.00;97176.47;5000475;28;20107;-74
2022/03/29 03:07:52;;;;;;;22.77;14.32;;;7.50;99.90;;;7.18;100.00;97174.78;5001274;28;20058;-74
2022/03/29 03:10:19;;;;;;;23.33;14.23;;;7.50;99.90;;;7.17;100.00;97165.38;5000716;28;20125;-74
2022/03/29 03:12:48;;;;;;;22.23;13.13;;;7.50;99.90;;;7.11;100.00;97167.25;5004847;28;20046;-74
2022/03/29 03:15:22;;;;;;;24.98;15.15;;;7.40;99.90;;;6.95;100.00;97171.25;5006226;28;20575;-74
2022/03/29 03:17:55;;;;;;;;;;;7.30;99.90;;;6.95;100.00;97171.25;5019207;28;20534;-74
2022/03/29 03:20:24;;;;;;;25.27;13.93;;;7.30;99.90;;;7.03;100.00;97168.44;5004635;28;20003;-74
2022/03/29 03:22:51;;;;;;;25.50;15.90;;;7.30;99.90;;;6.95;100.00;97165.25;5002248;28;20132;-74
2022/03/29 03:25:18;;;;;;;28.10;15.75;;;7.30;99.90;;;6.91;100.00;97165.38;5003675;28;20705;-74
2022/03/29 03:27:46;;;;;;;31.95;16.95;;;7.30;99.90;;;6.80;100.00;97164.91;5004324;28;20046;-74
2022/03/29 03:30:16;;;;;;;24.90;16.38;;;7.20;99.90;;;6.72;100.00;97159.16;4996397;28;20078;-74
2022/03/29 03:32:43;;;;;;;29.35;17.90;;;7.20;99.90;;;6.68;100.00;97162.72;5022922;28;20069;-74
2022/03/29 03:35:16;;;;;;;26.27;16.15;;;7.10;99.90;;;6.56;100.00;97158.00;5006938;28;20100;-73
2022/03/29 03:37:43;;;;;;;25.13;15.68;;;7.00;99.90;;;6.62;100.00;97161.22;4995042;28;20058;-74
2022/03/29 03:40:11;;;;;;;28.10;16.25;;;7.00;99.90;;;6.58;100.00;97169.09;5005456;28;20284;-74
2022/03/29 03:42:39;;;;;;;26.23;15.48;;;6.90;99.90;;;6.57;100.00;97157.09;5003095;28;20562;-74
2022/03/29 03:45:08;;;;;;;23.98;15.13;;;7.00;99.90;;;6.61;100.00;97162.09;5006562;28;20076;-75
2022/03/29 03:47:36;;;;;;;25.95;16.30;;;7.00;99.90;;;6.43;100.00;97157.53;5003108;28;20038;-74
2022/03/29 03:50:08;;;;;;;31.58;17.90;;;6.90;99.90;;;6.35;100.00;97154.38;5006064;28;20074;-74
2022/03/29 03:52:35;;;;;;;40.05;22.30;;;6.90;99.90;;;6.41;100.00;97149.00;5006403;28;20073;-74
2022/03/29 03:55:02;;;;;;;41.38;23.85;;;6.80;99.90;;;6.41;100.00;97151.59;5007356;28;20145;-74
2022/03/29 03:57:29;;;;;;;32.90;20.08;;;6.80;99.90;;;6.44;100.00;97141.19;5002765;28;20474;-74
2022/03/29 03:59:57;;;;;;;34.40;18.35;;;6.80;99.90;;;6.45;100.00;97143.72;5003944;28;20077;-74
2022/03/29 04:02:24;;;;;;;36.50;20.30;;;6.80;99.90;;;6.41;100.00;97141.28;5000639;28;20069;-73
2022/03/29 04:04:51;;;;;;;35.50;19.77;;;6.80;99.90;;;6.43;100.00;97142.94;5009325;28;20057;-73
2022/03/29 04:07:19;;;;;;;30.60;19.85;;;6.80;99.90;;;6.57;100.00;97131.28;5007075;28;20068;-75
2022/03/29 04:09:46;;;;;;;27.90;18.08;;;6.80;99.90;;;6.61;100.00;97132.88;5000250;28;20052;-74
2022/03/29 04:12:13;;;;;;;29.20;18.40;;;6.80;99.90;;;6.60;100.00;97132.06;5016518;28;20132;-75
2022/03/29 04:14:40;;;;;;;27.23;17.40;;;6.80;99.90;;;6.52;100.00;97122.88;5002181;28;20153;-74
2022/03/29 04:17:10;;;;;;;37.17;20.13;;;6.80;99.90;;;6.40;100.00;97126.72;5000419;28;20116;-74
2022/03/29 04:19:37;;;;;;;37.45;24.17;;;6.70;99.90;;;6.34;100.00;97119.19;5004817;28;20046;-74
2022/03/29 04:22:05;;;;;;;43.05;27.50;;;6.70;99.90;;;6.24;100.00;97126.38;5003102;28;20133;-74
2022/03/29 04:24:33;;;;;;;43.40;27.15;;;6.60;99.90;;;6.10;100.00;97126.81;5000129;28;20046;-74
2022/03/29 04:27:00;;;;;;;38.95;25.77;;;6.60;99.90;;;6.08;100.00;97128.59;5002385;28;20088;-74
2022/03/29 04:29:28;;;;;;;40.45;25.65;;;6.60;99.90;;;6.26;100.00;97127.16;5000758;28;20483;-74
2022/03/29 04:31:55;;;;;;;39.95;24.15;;;6.60;99.90;;;6.00;100.00;97125.44;5001352;28;20077;-74
2022/03/29 04:34:22;;;;;;;32.80;19.80;;;6.60;99.90;;;5.96;100.00;97131.56;5003333;28;20176;-74
2022/03/29 04:36:49;;;;;;;31.38;20.70;;;6.50;99.90;;;6.05;100.00;97118.41;5008792;28;20077;-74
2022/03/29 04:39:15;;;;;;;33.08;21.77;;;6.50;99.90;;;6.16;100.00;97116.31;5006033;28;20129;-74
2022/03/29 04:41:43;;;;;;;29.95;19.02;;;6.50;99.90;;;6.20;100.00;97117.06;5009442;28;20080;-74
2022/03/29 04:44:30;;;;;;;32.22;19.98;;;6.50;99.90;;;6.25;100.00;97121.19;5000742;28;20046;-74
2022/03/29 04:46:57;;;;;;;30.88;20.27;;;6.50;99.90;;;6.15;100.00;97118.94;5021056;28;20058;-74
2022/03/29 04:49:23;;;;;;;33.17;21.48;;;6.50;99.90;;;5.99;100.00;97116.00;5004263;28;20128;-74
2022/03/29 04:51:50;;;;;;;32.22;20.70;;;6.40;99.90;;;6.06;100.00;97113.19;5007513;28;20049;-74
2022/03/29 04:54:17;;;;;;;32.15;20.90;;;6.40;99.90;;;6.04;100.00;97115.00;4999388;28;20078;-73
2022/03/29 04:56:44;;;;;;;43.75;28.65;;;6.40;99.90;;;5.89;100.00;97114.59;5002499;28;20080;-76
2022/03/29 04:59:11;;;;;;;45.50;28.98;;;6.30;99.90;;;5.86;100.00;97111.22;5004987;28;21669;-74
2022/03/29 05:01:39;;;;;;;43.42;23.23;;;6.30;99.90;;;5.85;100.00;97100.97;5007048;28;20142;-74
2022/03/29 05:04:09;;;;;;;34.22;20.63;;;6.30;99.90;;;6.05;100.00;97097.78;5003317;28;20060;-74
2022/03/29 05:06:36;;;;;;;36.35;20.48;;;6.30;99.90;;;5.62;100.00;97105.09;5000516;28;20046;-75
2022/03/29 05:09:03;;;;;;;31.85;17.55;;;6.20;99.90;;;5.68;100.00;97098.06;5007328;28;20089;-74
2022/03/29 05:11:30;;;;;;;38.55;19.98;;;6.10;99.90;;;5.67;100.00;97094.66;5002720;28;20124;-74
2022/03/29 05:13:57;;;;;;;35.38;18.25;;;6.10;99.90;;;5.82;100.00;97095.91;5008474;28;20120;-74
2022/03/29 05:16:24;;;;;;;36.63;18.85;;;6.10;99.90;;;5.82;100.00;97095.91;5007232;28;20106;-74
2022/03/29 05:18:52;;;;;;;34.92;18.35;;;6.10;99.90;;;5.84;100.00;97104.44;5003909;28;20137;-74
2022/03/29 05:21:19;;;;;;;32.75;17.55;;;6.10;99.90;;;5.92;100.00;97096.47;5003274;28;20132;-74
2022/03/29 05:23:46;;;;;;;35.45;18.48;;;6.10;99.90;;;5.76;100.00;97090.94;5006285;28;20073;-74
2022/03/29 05:26:13;;;;;;;40.05;22.05;;;6.10;99.90;;;5.61;100.00;97097.41;5009707;28;20077;-74
2022/03/29 05:28:40;;;;;;;37.33;20.20;;;6.10;99.90;;;5.72;100.00;97103.06;5008963;28;20112;-73
2022/03/29 05:31:07;;;;;;;34.15;19.42;;;6.00;99.90;;;5.80;100.00;97100.28;5003380;28;20088;-73
2022/03/29 05:33:34;;;;;;;39.63;20.25;;;6.10;99.90;;;5.42;100.00;97100.53;5003769;28;20145;-73
2022/03/29 05:36:03;;;;;;;34.15;19.80;;;6.20;99.90;;;5.35;100.00;97104.19;5004661;28;20143;-75
2022/03/29 05:38:30;;;;;;;35.42;19.40;;;6.10;99.90;;;5.39;100.00;97113.50;5002518;28;20073;-74
2022/03/29 05:40:57;;;;;;;32.80;18.85;;;6.10;99.90;;;5.37;100.00;97104.97;5002663;28;20125;-74
2022/03/29 05:43:25;;;;;;;41.50;21.30;;;6.10;99.90;;;5.10;100.00;97108.34;5000321;28;20050;-74
2022/03/29 05:48:57;;;;;;;41.53;19.73;;;6.00;99.90;;;5.55;100.00;97105.31;4992573;28;20428;-74
2022/03/29 05:51:25;;;;;;;32.90;19.92;;;6.10;99.90;;;5.64;100.00;97098.16;4999812;28;20122;-73
2022/03/29 05:53:54;;;;;;;32.85;19.60;;;6.20;99.90;;;5.79;100.00;97103.72;4992147;28;20100;-74
2022/03/29 05:56:22;;;;;;;31.08;20.25;;;6.30;99.90;;;6.02;100.00;97105.59;5003554;28;20141;-74
2022/03/29 05:58:50;;;;;;;32.50;19.23;;;6.40;99.90;;;5.93;100.00;97103.28;5004267;28;20116;-74
2022/03/29 06:01:18;;;;;;;33.67;19.70;;;6.30;99.90;;;6.19;100.00;97110.22;5000258;28;20081;-73
2022/03/29 06:03:45;;;;;;;33.67;19.80;;;6.40;99.90;;;6.11;100.00;97099.31;4999277;28;20053;-73
2022/03/29 06:06:13;;;;;;;30.98;18.17;;;6.40;99.90;;;5.86;100.00;97106.06;5003789;28;20523;-74
2022/03/29 06:08:41;;;;;;;35.20;21.95;;;6.40;99.90;;;5.39;100.00;97115.25;5006068;28;20751;-74
2022/03/29 06:11:08;;;;;;;37.47;22.55;;;6.50;99.90;;;5.34;100.00;97109.38;5010277;28;20056;-72
2022/03/29 06:13:36;;;;;;;31.83;19.13;;;6.50;99.90;;;5.59;100.00;97119.81;5003302;28;20074;-74
2022/03/29 06:16:03;;;;;;;33.97;18.85;;;6.50;99.90;;;6.02;100.00;97113.31;5017764;28;20054;-74
2022/03/29 06:18:31;;;;;;;34.42;19.45;;;6.60;99.90;;;6.13;100.00;97106.09;5002499;28;20054;-73
2022/03/29 06:20:58;;;;;;;28.10;18.83;;;6.60;99.90;;;6.38;100.00;97103.56;5003419;28;20253;-74
2022/03/29 06:23:25;;;;;;;30.25;18.98;;;6.70;99.90;;;6.34;100.00;97095.97;5000361;28;20038;-74
2022/03/29 06:25:54;;;;;;;33.85;19.27;;;6.80;99.90;;;6.46;100.00;97101.56;5003212;28;20465;-74
2022/03/29 06:28:22;;;;;;;33.95;20.05;;;6.90;99.90;;;6.28;100.00;97102.19;5001901;28;20058;-74
2022/03/29 06:30:50;;;;;;;34.38;20.35;;;7.00;99.90;;;6.34;100.00;97109.72;4997574;28;20061;-74
2022/03/29 06:33:20;;;;;;;31.85;18.92;;;7.00;99.90;;;6.60;100.00;97106.25;4997477;28;20152;-73
2022/03/29 06:35:47;;;;;;;34.65;20.17;;;7.10;99.90;;;6.62;100.00;97101.06;4996043;28;20060;-74
2022/03/29 06:38:20;;;;;;;33.45;21.17;;;7.20;99.90;;;6.68;100.00;97100.81;5006236;28;20050;-75
2022/03/29 06:40:52;;;;;;;28.35;18.05;;;7.20;99.90;;;7.08;100.00;97102.00;4997521;28;20046;-74
2022/03/29 06:43:20;;;;;;;33.00;17.30;;;7.30;99.90;;;7.08;100.00;97099.44;5007748;28;20100;-74
2022/03/29 06:45:47;;;;;;;34.58;18.42;;;7.50;99.90;;;7.29;100.00;97103.78;5000393;28;20050;-74
2022/03/29 06:48:14;;;;;;;30.42;19.90;;;7.60;99.90;;;7.17;100.00;97104.25;5001856;28;20046;-74
2022/03/29 06:50:41;;;;;;;29.20;17.10;;;7.80;99.90;;;7.40;100.00;97103.41;5006579;28;20073;-74
2022/03/29 06:53:08;;;;;;;29.45;18.52;;;8.00;99.90;;;7.72;100.00;97098.75;5002598;28;20129;-74
2022/03/29 06:55:35;;;;;;;34.63;18.52;;;8.00;99.90;;;8.04;100.00;97100.06;5005224;28;20578;-74
2022/03/29 06:58:03;;;;;;;29.20;17.35;;;8.20;99.90;;;8.26;100.00;97099.22;5002703;28;20503;-74
2022/03/29 07:00:30;;;;;;;35.20;18.88;;;8.30;99.90;;;8.12;100.00;97090.28;5002913;28;20132;-74
2022/03/29 07:02:57;;;;;;;34.17;20.25;;;8.50;99.90;;;7.84;100.00;97093.09;4999759;28;20110;-74
2022/03/29 07:05:24;;;;;;;39.35;24.77;;;8.60;99.90;;;7.63;100.00;97092.19;5003620;28;20116;-74
2022/03/29 07:07:51;;;;;;;41.42;25.02;;;8.60;99.90;;;7.50;100.00;97096.13;5005188;28;20137;-74
2022/03/29 07:13:05;;;;;;;53.00;33.55;;;8.70;99.90;;;7.93;100.00;97097.91;5004570;28;20070;-74
2022/03/29 07:15:33;;;;;;;47.25;27.48;;;8.70;99.90;;;8.09;100.00;97092.94;5003112;28;20459;-74
2022/03/29 07:18:00;;;;;;;43.97;26.25;;;8.80;99.90;;;7.74;100.00;97097.78;5014882;28;20077;-74
2022/03/29 07:20:28;;;;;;;49.30;30.00;;;8.90;99.90;;;7.72;100.00;97096.16;5004832;28;20141;-74
2022/03/29 07:22:56;;;;;;;46.60;27.70;;;9.00;99.90;;;8.40;100.00;97083.13;5004036;28;20128;-74
2022/03/29 07:25:27;;;;;;;41.20;26.30;;;9.10;99.90;;;8.58;100.00;97084.97;5007307;28;20184;-74
2022/03/29 07:27:54;;;;;;;41.42;25.13;;;9.30;99.90;;;9.05;100.00;97076.03;4998763;28;20077;-74
2022/03/29 07:30:22;;;;;;;45.47;24.95;;;9.50;99.90;;;9.16;100.00;97081.56;5005529;28;20502;-73
2022/03/29 07:32:54;;;;;;;43.13;24.92;;;9.60;99.90;;;8.81;100.00;97083.13;5001357;28;20053;-74
2022/03/29 07:35:24;;;;;;;50.03;27.42;;;9.80;99.90;;;8.76;100.00;97079.00;5017125;28;20478;-74
2022/03/29 07:37:52;;;;;;;43.67;24.88;;;10.00;99.90;;;9.02;100.00;97079.59;5004969;28;20221;-73
2022/03/29 07:40:22;;;;;;;45.60;27.25;;;10.10;99.90;;;9.57;100.00;97071.06;5008736;28;20061;-73
2022/03/29 07:42:51;;;;;;;42.72;26.50;;;10.30;99.90;;;9.72;100.00;97070.34;4998868;28;20535;-74
2022/03/29 07:45:19;;;;;;;44.22;27.08;;;10.50;99.90;;;9.99;100.00;97067.34;5003363;28;20137;-74
2022/03/29 07:47:51;;;;;;;44.88;26.90;;;10.70;99.90;;;10.36;100.00;97060.41;5005239;28;20126;-74
2022/03/29 07:50:38;;;;;;;45.97;27.67;;;10.90;99.90;;;10.97;100.00;97056.41;4999972;28;20575;-73
2022/03/29 07:53:06;;;;;;;60.75;32.35;;;11.10;99.90;;;11.29;100.00;97058.16;5003260;28;20309;-74
2022/03/29 07:55:35;;;;;;;52.10;30.27;;;11.50;99.90;;;11.59;100.00;97054.81;5003080;28;20049;-74
2022/03/29 07:58:12;;;;;;;46.78;26.90;;;11.90;99.90;;;11.80;100.00;97059.75;5003359;28;20512;-74
2022/03/29 08:00:39;;;;;;;57.30;32.28;;;12.10;99.90;;;11.96;100.00;97059.75;4999331;28;20053;-73
2022/03/29 08:03:18;;;;;;;49.15;30.65;;;;;;;12.24;100.00;97059.00;5021960;28;20065;-74
2022/03/29 08:05:47;;;;;;;51.65;30.35;;;12.60;99.90;;;12.65;100.00;97058.34;5000075;28;20054;-74
2022/03/29 08:08:16;;;;;;;54.20;31.05;;;12.90;99.90;;;12.74;100.00;97052.59;5002684;28;20109;-74
2022/03/29 08:10:46;;;;;;;57.92;33.70;;;13.20;99.90;;;12.95;100.00;97048.72;5004567;28;20440;-74
2022/03/29 08:13:14;;;;;;;53.03;30.35;;;13.40;99.90;;;13.34;100.00;97049.84;5010691;28;20050;-74
2022/03/29 08:15:49;;;;;;;58.17;34.30;;;13.80;99.90;;;13.31;100.00;97049.19;5006077;28;20393;-74
2022/03/29 08:18:17;;;;;;;55.42;32.15;;;13.90;99.90;;;13.47;100.00;97039.47;5006658;28;20038;-74
2022/03/29 08:20:44;;;;;;;56.85;31.10;;;14.10;99.90;;;14.12;100.00;97035.34;5002175;28;20145;-75
2022/03/29 08:23:11;;;;;;;56.45;32.67;;;14.30;99.90;;;13.88;100.00;97046.44;5005619;28;20051;-74
2022/03/29 08:25:42;;;;;;;54.42;32.60;;;14.50;99.90;;;13.53;100.00;97040.88;5006252;28;20045;-74
2022/03/29 08:28:10;;;;;;;51.92;30.80;;;14.30;99.90;;;14.14;100.00;97044.75;5008220;28;20082;-74
2022/03/29 08:30:38;;;;;;;47.63;29.27;;;14.50;99.90;;;14.28;100.00;97041.22;5004043;28;20042;-74
2022/03/29 08:33:05;;;;;;;48.40;28.10;;;14.70;99.90;;;14.78;100.00;97038.78;5004026;28;20069;-74
2022/03/29 08:35:34;;;;;;;52.92;30.95;;;14.90;99.90;;;14.76;100.00;97031.06;5004105;28;20171;-74
2022/03/29 08:38:01;;;;;;;48.22;29.13;;;15.10;99.90;;;15.04;100.00;97037.00;5005968;28;20054;-74
2022/03/29 08:40:51;;;;;;;47.33;29.10;;;15.10;99.90;;;14.82;100.00;97030.66;5004161;28;20538;-74
2022/03/29 08:43:19;;;;;;;47.85;30.80;;;15.10;99.90;;;14.44;100.00;97034.06;5008027;28;20144;-73
2022/03/29 08:45:49;;;;;;;42.58;27.90;;;15.10;99.90;;;15.11;100.00;97025.19;5004962;28;20431;-74
2022/03/29 08:48:17;;;;;;;45.88;27.73;;;15.40;99.90;;;15.11;100.00;97024.34;5004471;28;20100;-75
2022/03/29 08:50:45;;;;;;;39.30;23.80;;;15.50;99.90;;;15.55;100.00;97025.59;5020522;28;20050;-74
2022/03/29 08:53:17;;;;;;;40.58;25.13;;;15.60;99.90;;;15.04;100.00;97022.16;5009787;28;20078;-74
2022/03/29 08:55:45;;;;;;;36.65;22.35;;;15.50;98.60;;;15.14;100.00;97022.34;5003163;28;20058;-74
2022/03/29 08:58:13;;;;;;;34.17;21.08;;;15.60;98.10;;;15.69;100.00;97017.59;5008428;28;20050;-74
2022/03/29 09:00:48;;;;;;;39.22;23.20;;;15.90;97.90;;;15.86;100.00;97013.81;5004849;28;20139;-74
2022/03/29 09:03:17;;;;;;;40.08;23.55;;;16.00;96.70;;;15.38;100.00;97017.19;5006815;28;20534;-74
2022/03/29 09:05:48;;;;;;;34.80;19.67;;;16.10;94.90;;;15.34;100.00;97009.66;5004257;28;20470;-73
2022/03/29 09:08:16;;;;;;;30.60;17.10;;;16.10;94.80;;;15.39;100.00;97004.94;5004311;28;20413;-74
2022/03/29 09:10:48;;;;;;;30.02;17.80;;;15.90;92.30;;;14.67;100.00;97013.41;5004252;28;20042;-74
2022/03/29 09:13:27;;;;;;;24.98;16.77;;;16.00;88.10;;;14.38;100.00;97020.56;5005311;28;20082;-74
2022/03/29 09:16:00;;;;;;;24.88;13.25;;;16.00;86.40;;;14.21;100.00;97016.47;5006794;28;20092;-74
2022/03/29 09:18:30;;;;;;;23.00;12.30;;;16.00;84.70;;;14.56;100.00;97008.91;5004855;28;20046;-74
2022/03/29 09:21:13;;;;;;;21.33;13.25;;;15.90;84.40;;;14.35;100.00;97013.78;5005399;28;20073;-73
2022/03/29 09:24:03;;;;;;;;;;;15.90;82.30;;;14.52;100.00;97009.19;5008795;28;20049;-74
2022/03/29 09:26:30;;;;;;;21.42;12.60;;;15.90;83.60;;;14.98;100.00;97008.69;4998088;28;20021;-74
2022/03/29 09:28:58;;;;;;;20.77;13.02;;;15.90;83.40;;;15.22;100.00;96996.50;5001090;28;20067;-74
2022/03/29 09:31:27;;;;;;;19.55;11.88;;;16.10;83.40;;;15.32;100.00;97001.09;5008694;28;20046;-74
2022/03/29 09:34:19;;;;;;;22.35;11.57;;;16.00;81.70;;;15.93;100.00;96990.63;5006098;28;20054;-74
2022/03/29 09:36:52;;;;;;;18.05;12.10;;;16.00;83.90;;;15.72;100.00;97003.50;5000238;28;20149;-74
2022/03/29 09:39:36;;;;;;;18.48;12.23;;;16.20;84.50;;;16.52;100.00;96983.53;5000462;28;20042;-74
2022/03/29 09:42:09;;;;;;;22.73;12.00;;;16.60;82.00;;;16.44;97.88;96988.50;5006390;28;20591;-74
2022/03/29 09:44:57;;;;;;;20.58;13.40;;;16.70;80.60;;;15.92;97.16;96994.19;5002914;28;20129;-74
2022/03/29 09:47:27;;;;;;;18.08;11.30;;;16.70;78.50;;;15.18;99.72;96989.81;5007329;28;20124;-73
2022/03/29 09:50:08;;;;;;;16.85;10.95;;;16.70;79.10;;;14.95;96.64;96986.22;5000834;28;20522;-73
2022/03/29 09:52:40;;;;;;;21.00;13.40;;;16.70;75.40;;;15.18;95.86;96981.16;5002591;28;20093;-73
2022/03/29 09:55:16;;;;;;;18.35;11.52;;;16.60;76.20;;;15.45;97.00;96984.41;5006011;28;20047;-74
2022/03/29 09:57:47;;;;;;;19.27;11.10;;;16.60;77.20;;;16.48;96.91;96965.53;4998369;28;20444;-74
2022/03/29 10:00:35;;;;;;;17.93;11.20;;;16.80;78.40;;;15.38;93.32;96969.28;5000922;28;20058;-73
2022/03/29 10:03:07;;;;;;;31.52;18.55;;;17.10;73.70;;;15.80;92.23;96967.97;5004024;28;20088;-74
2022/03/29 10:05:37;;;;;;;23.08;12.65;;;17.10;73.70;;;15.14;92.47;96971.84;5005811;28;20062;-74
2022/03/29 10:11:03;;;;;;;22.48;14.50;;;17.00;73.20;;;15.75;94.18;96951.78;5002575;28;20057;-75
2022/03/29 10:13:30;;;;;;;18.25;10.43;;;17.20;73.70;;;16.45;94.54;96945.66;5003095;28;20499;-74
2022/03/29 10:16:00;;;;;;;19.65;10.60;;;17.20;75.00;;;15.62;92.09;96946.59;4998365;28;20068;-74
2022/03/29 10:18:28;;;;;;;19.60;11.27;;;17.20;73.10;;;15.62;91.53;96946.59;4991729;28;20132;-74
2022/03/29 10:20:56;;;;;;;17.83;10.30;;;17.30;72.50;;;16.07;91.87;96944.16;5002484;28;20133;-74
2022/03/29 10:23:28;;;;;;;25.08;14.38;;;17.10;72.60;;;15.81;90.17;96943.47;4997552;28;20513;-73
2022/03/29 10:25:57;;;;;;;16.15;10.45;;;17.00;71.80;;;15.36;90.58;96935.38;5003716;28;20054;-73
2022/03/29 10:28:29;;;;;;;17.55;10.38;;;17.10;71.30;;;15.22;91.90;96944.22;5003454;28;20656;-74